Flight Track Log - Related Links

Times and Time Zones

All times are in EDT time to prevent confusion due to time zone crossing. See the ACA831 flight status page for this flight to view local times or setup timezone preferences in your user account.

Time Position Orientation Groundspeed Altitude Reporting Facility
EDT Latitude Longitude Course Direction KTS MPH feet Rate Location/Type
Tue 06:20:12 AM 46.1990 6.0600 36° Northeast 168 193 4,100  Level FlightAware ADS-B
Tue 06:22:00 AM 46.3322 5.8369 296° West  Level FlightAware Approximate
Tue 06:23:00 AM 46.3784 5.6911 294° West  Level FlightAware Approximate
Tue 06:23:07 AM 46.1960 5.8830 294° West 291 335 11,000  Level FlightAware ADS-B
Tue 06:23:52 AM 46.2550 5.8340 330° Northwest 330 380 12,800 2,832 Climbing FlightAware ADS-B
Tue 06:25:12 AM 46.3650 5.7360 328° Northwest 362 417 16,900 3,100 Climbing FlightAware ADS-B
Tue 06:25:52 AM 46.4230 5.6850 329° Northwest 364 419 19,000 2,815 Climbing FlightAware ADS-B
Tue 06:27:22 AM 46.5590 5.5650 329° Northwest 397 457 23,000 2,585 Climbing FlightAware ADS-B
Tue 06:28:02 AM 46.6230 5.5080 329° Northwest 406 467 24,600 2,047 Climbing FlightAware ADS-B
Tue 06:28:47 AM 46.6940 5.4450 329° Northwest 425 489 25,900 1,976 Climbing FlightAware ADS-B
Tue 06:29:27 AM 46.7610 5.3860 329° Northwest 432 497 27,400 1,976 Climbing FlightAware ADS-B
Tue 06:30:12 AM 46.8380 5.3070 325° Northwest 443 510 28,700 1,575 Climbing FlightAware ADS-B
Tue 06:30:47 AM 46.8900 5.2360 317° Northwest 455 524 29,500 2,100 Climbing FlightAware ADS-B
Tue 06:31:32 AM 46.9580 5.1420 317° Northwest 446 513 31,500 2,329 Climbing FlightAware ADS-B
Tue 06:32:12 AM 47.0170 5.0600 317° Northwest 443 510 32,800 1,412 Climbing FlightAware ADS-B
Tue 06:32:57 AM 47.0840 4.9660 316° Northwest 446 513 33,500 800 Climbing FlightAware ADS-B
Tue 06:33:42 AM 47.1520 4.8700 316° Northwest 440 506 34,000 353 Climbing FlightAware ADS-B
Tue 06:34:22 AM 47.2050 4.7930 315° West 437 503 34,000  Level FlightAware ADS-B
Tue 06:35:02 AM 47.2670 4.7040 316° Northwest 437 503 34,000  Level FlightAware ADS-B
Tue 06:35:47 AM 47.3310 4.6110 315° West 439 505 34,000  Level FlightAware ADS-B
Tue 06:36:27 AM 47.3880 4.5290 316° Northwest 441 507 34,000 150 Level FlightAware ADS-B
Tue 06:37:07 AM 47.4460 4.4440 315° West 439 505 34,200 525 Climbing FlightAware ADS-B
Tue 06:37:47 AM 47.5030 4.3620 316° Northwest 434 499 34,700 847 Climbing FlightAware ADS-B
Tue 06:38:32 AM 47.5670 4.2680 315° West 430 495 35,400 867 Climbing FlightAware ADS-B
Tue 06:39:17 AM 47.6320 4.1740 316° Northwest 435 501 36,000 424 Climbing FlightAware ADS-B
Tue 06:39:57 AM 47.6900 4.0880 315° West 446 513 36,000  Level FlightAware ADS-B
Tue 06:40:42 AM 47.7530 3.9950 315° West 449 517 36,000  Level FlightAware ADS-B
Tue 06:41:17 AM 47.8060 3.9170 315° West 446 513 36,000  Level FlightAware ADS-B
Tue 06:42:02 AM 47.8740 3.8160 315° West 443 510 36,000  Level FlightAware ADS-B
Tue 06:42:42 AM 47.9310 3.7310 315° West 441 507 36,000  Level FlightAware ADS-B
Tue 06:43:22 AM 47.9890 3.6450 315° West 438 504 36,000  Level FlightAware ADS-B
Tue 06:44:12 AM 48.0600 3.5380 315° West 436 502 36,000  Level FlightAware ADS-B
Tue 06:44:47 AM 48.1090 3.4640 315° West 436 502 36,000  Level FlightAware ADS-B
Tue 06:45:27 AM 48.1660 3.3790 315° West 434 499 36,000  Level FlightAware ADS-B
Tue 06:46:17 AM 48.2350 3.2760 315° West 434 499 36,000  Level FlightAware ADS-B
Tue 06:46:57 AM 48.2910 3.1910 315° West 435 501 36,000  Level FlightAware ADS-B
Tue 06:48:42 AM 48.4320 2.9780 315° West 439 505 36,000  Level FlightAware ADS-B
Tue 06:49:32 AM 48.5050 2.8650 314° West 441 507 36,000 -320 Level FlightAware ADS-B
Tue 06:52:00 AM 48.6349 2.4806 297° West  Level Estimated
Tue 06:53:00 AM 48.6872 2.3242 297° West  Level Estimated
Tue 06:53:23 AM 48.7425 2.2434 297° West 1 1 34,500  Level FlightAware UK
Tue 06:53:27 AM 48.7500 2.2440 297° West 439 505 36,000  Climbing FlightAware ADS-B
Tue 06:53:53 AM 48.7557 2.1538 297° West 472 543 34,500  Descending FlightAware UK
Tue 06:54:12 AM 48.7720 2.1090 297° West 438 504 36,000  Climbing FlightAware ADS-B
Tue 06:54:35 AM 48.7757 2.0287 297° West 474 545 34,500  Descending FlightAware UK
Tue 06:54:52 AM 48.7920 1.9880 297° West 436 502 36,000 -167 Climbing FlightAware ADS-B
Tue 06:55:11 AM 48.7930 1.9217 297° West 472 543 34,400 -2,432 Descending FlightAware UK
Tue 06:55:29 AM 48.8012 1.8682 283° West 470 541 34,500 4,571 Climbing FlightAware UK
Tue 06:55:32 AM 48.8100 1.8700 283° West 435 501 36,000  Climbing FlightAware ADS-B
Tue 06:55:59 AM 48.8140 1.7788 283° West 470 541 34,500  Descending FlightAware UK
Tue 06:56:17 AM 48.8300 1.7410 283° West 433 498 36,000  Climbing FlightAware ADS-B
Tue 06:56:34 AM 48.8301 1.6728 283° West 472 543 34,500  Descending FlightAware UK
Tue 06:56:57 AM 48.8490 1.6240 283° West 432 497 36,000  Climbing FlightAware ADS-B
Tue 06:57:28 AM 48.8548 1.5136 283° West 472 543 34,500  Descending FlightAware UK
Tue 06:57:42 AM 48.8700 1.4890 283° West 431 496 36,000  Climbing FlightAware ADS-B
Tue 06:57:58 AM 48.8682 1.4254 283° West 470 541 34,500 -2,647 Descending FlightAware UK
Tue 06:58:16 AM 48.8763 1.3726 283° West 470 541 34,500 3,750 Level FlightAware UK
Tue 06:58:22 AM 48.8880 1.3710 283° West 428 493 36,000  Climbing FlightAware ADS-B
Tue 06:58:52 AM 48.8924 1.2682 283° West 470 541 34,500  Descending FlightAware UK
Tue 06:59:07 AM 48.9070 1.2460 283° West 427 491 36,000 1,636 Climbing FlightAware ADS-B
Tue 06:59:47 AM 48.9260 1.1220 283° West 425 489 36,000 -1,579 Level FlightAware ADS-B
Tue 07:00:04 AM 48.9237 1.0586 283° West 468 539 34,500 -2,571 Descending FlightAware UK
Tue 07:00:22 AM 48.9317 1.0064 283° West 466 536 34,500 3,913 Level FlightAware UK
Tue 07:00:27 AM 48.9430 1.0120 283° West 424 488 36,000  Climbing FlightAware ADS-B
Tue 07:00:46 AM 48.9420 0.9372 283° West 466 536 34,500 -2,432 Descending FlightAware UK
Tue 07:01:04 AM 48.9496 0.8851 283° West 466 536 34,500  Level FlightAware UK
Tue 07:01:28 AM 48.9600 0.8156 283° West 464 534 34,500  Level FlightAware UK
Tue 07:01:58 AM 48.9725 0.7284 282° West 462 532 34,500 -71 Level FlightAware UK
Tue 07:02:52 AM 48.9950 0.5724 282° West 464 534 34,400 -71 Descending FlightAware UK
Tue 07:03:22 AM 49.0076 0.4859 283° West 464 534 34,400  Level FlightAware UK
Tue 07:03:46 AM 49.0175 0.4167 282° West 464 534 34,400  Level FlightAware UK
Tue 07:04:04 AM 49.0248 0.3655 282° West 464 534 34,400 3,692 Level FlightAware UK
Tue 07:04:12 AM 49.0380 0.3560 282° West 421 484 36,000  Climbing FlightAware ADS-B
Tue 07:04:46 AM 49.0420 0.2446 282° West 464 534 34,400  Descending FlightAware UK
Tue 07:04:52 AM 49.0540 0.2440 282° West 421 484 36,000 3,429 Climbing FlightAware ADS-B
Tue 07:05:14 AM 49.0634 0.1771 282° West 422 486 36,000 -2,043 Level FlightAware ADS-B
Tue 07:05:39 AM 49.0638 0.0889 282° West 464 534 34,400  Descending FlightAware UK
Tue 07:06:17 AM 49.0890 -0.0070 282° West 421 484 36,000 111 Climbing FlightAware ADS-B
Tue 07:06:33 AM 49.0857 -0.0674 282° West 466 536 34,500  Descending FlightAware UK
Tue 07:07:02 AM 49.1060 -0.1360 282° West 420 483 36,000 1,304 Climbing FlightAware ADS-B
Tue 07:07:42 AM 49.1220 -0.2510 282° West 419 482 36,000 -1,636 Level FlightAware ADS-B
Tue 07:07:57 AM 49.1185 -0.3105 282° West 466 536 34,500  Descending FlightAware UK
Tue 07:08:22 AM 49.1360 -0.3600 282° West 418 481 36,000 1,385 Climbing FlightAware ADS-B
Tue 07:09:02 AM 49.1510 -0.4720 282° West 418 481 36,000 -1,385 Level FlightAware ADS-B
Tue 07:09:27 AM 49.1532 -0.5698 282° West 466 536 34,500  Descending FlightAware UK
Tue 07:09:47 AM 49.1690 -0.6050 282° West 416 479 36,000  Climbing FlightAware ADS-B
Tue 07:10:03 AM 49.1669 -0.6735 282° West 468 539 34,500 -2,647 Descending FlightAware UK
Tue 07:10:21 AM 49.1736 -0.7254 281° West 468 539 34,500 3,750 Level FlightAware UK
Tue 07:10:27 AM 49.1840 -0.7240 281° West 416 479 36,000  Climbing FlightAware ADS-B
Tue 07:11:03 AM 49.1895 -0.8454 281° West 468 539 34,500  Descending FlightAware UK
Tue 07:11:12 AM 49.2010 -0.8520 281° West 415 478 36,000  Climbing FlightAware ADS-B
Tue 07:11:27 AM 49.1985 -0.9143 281° West 468 539 34,500  Descending FlightAware UK
Tue 07:11:52 AM 49.2150 -0.9630 281° West 413 475 36,000  Climbing FlightAware ADS-B
Tue 07:12:09 AM 49.2146 -1.0337 281° West 470 541 34,500 -2,195 Descending FlightAware UK
Tue 07:12:33 AM 49.2245 -1.1017 283° West 468 539 34,500 3,214 Level FlightAware UK
Tue 07:12:37 AM 49.2320 -1.0860 283° West 411 473 36,000  Climbing FlightAware ADS-B
Tue 07:13:03 AM 49.2368 -1.1864 283° West 468 539 34,500 -1,059 Descending FlightAware UK
Tue 07:14:02 AM 49.2611 -1.3545 283° West 470 541 34,500  Level FlightAware UK
Tue 07:14:32 AM 49.2737 -1.4388 283° West 466 536 34,500  Level FlightAware UK
Tue 07:15:44 AM 49.3014 -1.6404 282° West 468 539 34,500  Level FlightAware UK
Tue 07:16:32 AM 49.3157 -1.7757 279° West 468 539 34,500  Level FlightAware UK
Tue 07:16:56 AM 49.3236 -1.8424 280° West 468 539 34,500  Level FlightAware UK
Tue 07:17:20 AM 49.3316 -1.9099 280° West 468 539 34,500  Level FlightAware UK
Tue 07:17:38 AM 49.3377 -1.9607 280° West 466 536 34,500 2,432 Level FlightAware UK
Tue 07:17:57 AM 49.3470 -1.9860 280° West 402 463 36,000 1,667 Climbing FlightAware ADS-B
Tue 07:18:32 AM 49.3590 -2.0930 280° West 401 461 36,000  Level FlightAware ADS-B
Tue 07:19:22 AM 49.3740 -2.2290 280° West 400 460 36,000 -1,364 Level FlightAware ADS-B
Tue 07:19:38 AM 49.3776 -2.2958 280° West 464 534 34,500  Descending FlightAware UK
Tue 07:20:02 AM 49.3870 -2.3430 280° West 401 461 36,000  Climbing FlightAware ADS-B
Tue 07:20:32 AM 49.3948 -2.4460 280° West 464 534 34,500  Descending FlightAware UK
Tue 07:20:47 AM 49.4030 -2.4800 280° West 401 461 36,000  Climbing FlightAware ADS-B
Tue 07:21:02 AM 49.4040 -2.5301 280° West 464 534 34,500 -2,308 Descending FlightAware UK
Tue 07:21:26 AM 49.4115 -2.5974 280° West 464 534 34,500 3,000 Level FlightAware UK
Tue 07:21:32 AM 49.4150 -2.6010 280° West 402 463 36,000  Climbing FlightAware ADS-B
Tue 07:21:55 AM 49.4208 -2.6809 280° West 464 534 34,500  Descending FlightAware UK
Tue 07:22:12 AM 49.4280 -2.7150 280° West 402 463 36,000  Climbing FlightAware ADS-B
Tue 07:22:31 AM 49.4322 -2.7819 280° West 464 534 34,500 -2,432 Descending FlightAware UK
Tue 07:22:49 AM 49.4376 -2.8324 279° West 464 534 34,500 4,286 Level FlightAware UK
Tue 07:22:52 AM 49.4390 -2.8280 279° West 401 461 36,000 1,875 Climbing FlightAware ADS-B
Tue 07:23:37 AM 49.4530 -2.9550 280° West 402 463 36,000 -1,200 Level FlightAware ADS-B
Tue 07:24:07 AM 49.4612 -3.0514 280° West 462 532 34,500  Descending FlightAware UK
Tue 07:24:17 AM 49.4650 -3.0720 280° West 403 464 36,000  Climbing FlightAware ADS-B
Tue 07:24:37 AM 49.4702 -3.1354 280° West 464 534 34,500  Descending FlightAware UK
Tue 07:25:02 AM 49.4770 -3.1930 280° West 403 464 36,000 -125 Climbing FlightAware ADS-B
Tue 07:25:25 AM 49.4846 -3.2712 280° West 464 534 34,400  Descending FlightAware UK
Tue 07:25:42 AM 49.4880 -3.3070 280° West 403 464 36,000 167 Climbing FlightAware ADS-B
Tue 07:26:01 AM 49.4953 -3.3729 280° West 464 534 34,500  Descending FlightAware UK
Tue 07:26:22 AM 49.4990 -3.4170 280° West 404 465 36,000  Climbing FlightAware ADS-B
Tue 07:26:37 AM 49.5058 -3.4747 280° West 464 534 34,500 -2,727 Descending FlightAware UK
Tue 07:26:55 AM 49.5109 -3.5251 279° West 462 532 34,500 3,000 Level FlightAware UK
Tue 07:27:07 AM 49.5130 -3.5520 279° West 403 464 36,000  Climbing FlightAware ADS-B
Tue 07:27:25 AM 49.5206 -3.6097 279° West 464 534 34,500 -2,500 Descending FlightAware UK
Tue 07:27:43 AM 49.5281 -3.6601 283° West 464 534 34,500 4,091 Level FlightAware UK
Tue 07:27:47 AM 49.5270 -3.6610 283° West 404 465 36,000  Climbing FlightAware ADS-B
Tue 07:28:07 AM 49.5366 -3.7274 283° West 464 534 34,500 -2,368 Descending FlightAware UK
Tue 07:28:25 AM 49.5430 -3.7781 281° West 464 534 34,500 3,600 Level FlightAware UK
Tue 07:28:32 AM 49.5420 -3.7860 281° West 404 465 36,000 1,915 Climbing FlightAware ADS-B
Tue 07:29:12 AM 49.5550 -3.8960 280° West 404 465 36,000 -1,525 Level FlightAware ADS-B
Tue 07:29:31 AM 49.5666 -3.9636 280° West 462 532 34,500  Descending FlightAware UK
Tue 07:29:52 AM 49.5700 -4.0140 280° West 405 466 36,000  Climbing FlightAware ADS-B
Tue 07:30:25 AM 49.5857 -4.1163 280° West 462 532 34,500  Descending FlightAware UK
Tue 07:30:37 AM 49.5850 -4.1440 280° West 406 467 36,000  Climbing FlightAware ADS-B
Tue 07:31:07 AM 49.6006 -4.2353 280° West 462 532 34,500  Descending FlightAware UK
Tue 07:31:17 AM 49.6020 -4.2570 280° West 408 470 36,000  Climbing FlightAware ADS-B
Tue 07:31:37 AM 49.6188 -4.3181 280° West 462 532 34,500 -2,368 Descending FlightAware UK
Tue 07:31:55 AM 49.6316 -4.3667 292° West 462 532 34,500 4,500 Level FlightAware UK
Tue 07:31:57 AM 49.6280 -4.3640 292° West 408 470 36,000  Climbing FlightAware ADS-B
Tue 07:32:13 AM 49.6458 -4.4142 292° West 462 532 34,500 -2,647 Descending FlightAware UK
Tue 07:32:31 AM 49.6592 -4.4625 293° West 462 532 34,500 3,103 Level FlightAware UK
Tue 07:32:42 AM 49.6600 -4.4830 293° West 409 471 36,000  Climbing FlightAware ADS-B
Tue 07:33:12 AM 49.6901 -4.5746 293° West 462 532 34,500  Descending FlightAware UK
Tue 07:33:22 AM 49.6890 -4.5890 293° West 409 471 36,000 1,636 Climbing FlightAware ADS-B
Tue 07:34:07 AM 49.7230 -4.7140 293° West 410 472 36,000 -1,216 Level FlightAware ADS-B
Tue 07:34:36 AM 49.7531 -4.8001 293° West 462 532 34,500  Descending FlightAware UK
Tue 07:34:47 AM 49.7520 -4.8190 293° West 411 473 36,000  Climbing FlightAware ADS-B
Tue 07:35:06 AM 49.7757 -4.8809 293° West 462 532 34,500 -2,432 Descending FlightAware UK
Tue 07:35:24 AM 49.7891 -4.9295 293° West 462 532 34,500 3,462 Level FlightAware UK
Tue 07:35:32 AM 49.7860 -4.9440 293° West 411 473 36,000  Climbing FlightAware ADS-B
Tue 07:35:54 AM 49.8112 -5.0108 293° West 462 532 34,500  Descending FlightAware UK
Tue 07:36:12 AM 49.8140 -5.0490 293° West 411 473 36,000  Climbing FlightAware ADS-B
Tue 07:36:36 AM 49.8421 -5.1241 293° West 462 532 34,500  Descending FlightAware UK
Tue 07:36:52 AM 49.8440 -5.1610 293° West 412 474 36,000  Climbing FlightAware ADS-B
Tue 07:37:12 AM 49.8687 -5.2220 293° West 462 532 34,500  Descending FlightAware UK
Tue 07:37:37 AM 49.8770 -5.2820 293° West 414 476 36,000  Climbing FlightAware ADS-B
Tue 07:37:54 AM 49.8998 -5.3366 293° West 464 534 34,500 -2,571 Descending FlightAware UK
Tue 07:38:12 AM 49.9131 -5.3858 293° West 464 534 34,500 3,913 Level FlightAware UK
Tue 07:38:17 AM 49.9060 -5.3900 293° West 414 476 36,000  Climbing FlightAware ADS-B
Tue 07:38:54 AM 49.9440 -5.5011 293° West 464 534 34,500  Descending FlightAware UK
Tue 07:38:57 AM 49.9350 -5.5000 293° West 414 476 36,000  Climbing FlightAware ADS-B
Tue 07:39:12 AM 49.9572 -5.5507 293° West 462 532 34,500 -2,727 Descending FlightAware UK
Tue 07:39:30 AM 49.9704 -5.6001 293° West 462 532 34,500 3,000 Level FlightAware UK
Tue 07:39:42 AM 49.9670 -5.6230 293° West 415 478 36,000  Climbing FlightAware ADS-B
Tue 07:40:00 AM 49.9923 -5.6826 293° West 464 534 34,500 -2,500 Descending FlightAware UK
Tue 07:40:18 AM 50.0054 -5.7322 292° West 464 534 34,500 4,091 Level FlightAware UK
Tue 07:40:22 AM 49.9960 -5.7310 292° West 415 478 36,000  Climbing FlightAware ADS-B
Tue 07:40:42 AM 50.0227 -5.7984 292° West 462 532 34,500 -2,368 Descending FlightAware UK
Tue 07:41:00 AM 50.0358 -5.8480 292° West 462 532 34,500 4,500 Level FlightAware UK
Tue 07:41:02 AM 50.0250 -5.8420 292° West 416 479 36,000  Climbing FlightAware ADS-B
Tue 07:41:18 AM 50.0488 -5.8978 292° West 464 534 34,500 -2,647 Descending FlightAware UK
Tue 07:41:36 AM 50.0619 -5.9469 292° West 462 532 34,500 3,103 Level FlightAware UK
Tue 07:41:47 AM 50.0580 -5.9680 292° West 416 479 36,000  Climbing FlightAware ADS-B
Tue 07:42:06 AM 50.0839 -6.0298 292° West 462 532 34,500 -2,432 Descending FlightAware UK
Tue 07:42:24 AM 50.0970 -6.0795 292° West 462 532 34,500 4,286 Level FlightAware UK
Tue 07:42:27 AM 50.0870 -6.0790 292° West 417 480 36,000  Climbing FlightAware ADS-B
Tue 07:42:42 AM 50.1101 -6.1295 292° West 462 532 34,500 -2,727 Descending FlightAware UK
Tue 07:43:00 AM 50.1233 -6.1794 292° West 462 532 34,500 3,000 Level FlightAware UK
Tue 07:43:12 AM 50.1200 -6.2060 292° West 418 481 36,000  Climbing FlightAware ADS-B
Tue 07:43:30 AM 50.1449 -6.2629 292° West 462 532 34,500 -2,500 Descending FlightAware UK
Tue 07:43:48 AM 50.1579 -6.3130 292° West 462 532 34,500 4,091 Level FlightAware UK
Tue 07:43:52 AM 50.1490 -6.3180 292° West 417 480 36,000  Climbing FlightAware ADS-B
Tue 07:44:12 AM 50.1752 -6.3797 292° West 462 532 34,500 -2,368 Descending FlightAware UK
Tue 07:44:30 AM 50.1882 -6.4297 292° West 462 532 34,500 4,500 Level FlightAware UK
Tue 07:44:32 AM 50.1780 -6.4300 292° West 416 479 36,000  Climbing FlightAware ADS-B
Tue 07:44:48 AM 50.2011 -6.4798 292° West 462 532 34,500 -2,647 Descending FlightAware UK
Tue 07:45:06 AM 50.2139 -6.5299 292° West 462 532 34,500 3,103 Level FlightAware UK
Tue 07:45:17 AM 50.2090 -6.5520 292° West 416 479 36,000  Climbing FlightAware ADS-B
Tue 07:45:36 AM 50.2354 -6.6133 292° West 460 529 34,500 -2,432 Descending FlightAware UK
Tue 07:45:54 AM 50.2483 -6.6633 292° West 460 529 34,500 4,286 Level FlightAware UK
Tue 07:45:57 AM 50.2380 -6.6650 292° West 417 480 36,000  Climbing FlightAware ADS-B
Tue 07:46:12 AM 50.2612 -6.7135 292° West 460 529 34,500 -2,727 Descending FlightAware UK
Tue 07:46:30 AM 50.2738 -6.7639 291° West 460 529 34,500 3,000 Level FlightAware UK
Tue 07:46:42 AM 50.2690 -6.7880 291° West 418 481 36,000  Climbing FlightAware ADS-B
Tue 07:47:00 AM 50.2947 -6.8482 291° West 462 532 34,500 -2,500 Descending FlightAware UK
Tue 07:47:18 AM 50.3073 -6.8987 291° West 462 532 34,500 4,091 Level FlightAware UK
Tue 07:47:22 AM 50.2970 -6.9000 291° West 418 481 36,000  Climbing FlightAware ADS-B
Tue 07:47:42 AM 50.3243 -6.9661 291° West 462 532 34,500 -2,368 Descending FlightAware UK
Tue 07:48:00 AM 50.3372 -7.0167 292° West 464 534 34,500 4,500 Level FlightAware UK
Tue 07:48:02 AM 50.3260 -7.0150 292° West 419 482 36,000  Climbing FlightAware ADS-B
Tue 07:48:18 AM 50.3497 -7.0669 292° West 464 534 34,500 -2,647 Descending FlightAware UK
Tue 07:48:36 AM 50.3623 -7.1176 291° West 464 534 34,500 3,103 Level FlightAware UK
Tue 07:48:47 AM 50.3570 -7.1400 291° West 419 482 36,000  Climbing FlightAware ADS-B
Tue 07:49:06 AM 50.3834 -7.2024 291° West 464 534 34,500 -2,432 Descending FlightAware UK
Tue 07:49:24 AM 50.3960 -7.2533 291° West 462 532 34,500 3,462 Level FlightAware UK
Tue 07:49:32 AM 50.3880 -7.2660 291° West 419 482 36,000  Climbing FlightAware ADS-B
Tue 07:49:48 AM 50.4126 -7.3211 291° West 462 532 34,500 -2,647 Descending FlightAware UK
Tue 07:50:06 AM 50.4251 -7.3720 291° West 462 532 34,500 3,750 Level FlightAware UK
Tue 07:50:12 AM 50.4170 -7.3840 291° West 418 481 36,000  Climbing FlightAware ADS-B
Tue 07:50:30 AM 50.4417 -7.4397 291° West 462 532 34,500  Descending FlightAware UK
Tue 07:50:47 AM 50.4400 -7.4730 291° West 418 481 36,000  Climbing FlightAware ADS-B
Tue 07:50:48 AM 50.4542 -7.4905 291° West 460 529 34,500 -4,737 Descending FlightAware UK
Tue 07:51:06 AM 50.4667 -7.5413 291° West 462 532 34,500  Level FlightAware UK
Tue 07:51:24 AM 50.4791 -7.5922 291° West 462 532 34,500 2,903 Level FlightAware UK
Tue 07:51:37 AM 50.4760 -7.6200 291° West 418 481 36,000  Climbing FlightAware ADS-B
Tue 07:51:54 AM 50.4999 -7.6770 291° West 462 532 34,500 -2,571 Descending FlightAware UK
Tue 07:52:12 AM 50.5123 -7.7279 291° West 462 532 34,500 3,913 Level FlightAware UK
Tue 07:52:17 AM 50.5030 -7.7330 291° West 418 481 36,000  Climbing FlightAware ADS-B
Tue 07:52:36 AM 50.5287 -7.7959 291° West 462 532 34,500 -2,432 Descending FlightAware UK
Tue 07:52:54 AM 50.5410 -7.8469 291° West 462 532 34,500 3,462 Level FlightAware UK
Tue 07:53:02 AM 50.5350 -7.8630 291° West 419 482 36,000  Climbing FlightAware ADS-B
Tue 07:53:18 AM 50.5574 -7.9151 291° West 462 532 34,500 -2,647 Descending FlightAware UK
Tue 07:53:36 AM 50.5695 -7.9662 291° West 460 529 34,500 3,750 Level FlightAware UK
Tue 07:53:42 AM 50.5630 -7.9770 291° West 418 481 36,000  Climbing FlightAware ADS-B
Tue 07:54:00 AM 50.5858 -8.0344 291° West 460 529 34,500 -2,500 Descending FlightAware UK
Tue 07:54:18 AM 50.5980 -8.0855 291° West 460 529 34,500 3,333 Level FlightAware UK
Tue 07:54:27 AM 50.5930 -8.1000 291° West 418 481 36,000  Climbing FlightAware ADS-B
Tue 07:54:42 AM 50.6143 -8.1536 291° West 460 529 34,500 -2,727 Descending FlightAware UK
Tue 07:55:00 AM 50.6264 -8.2041 291° West 460 529 34,500 3,600 Level FlightAware UK
Tue 07:55:07 AM 50.6200 -8.2130 291° West 419 482 36,000  Climbing FlightAware ADS-B
Tue 07:55:24 AM 50.6425 -8.2724 291° West 460 529 34,500 -2,571 Descending FlightAware UK
Tue 07:55:42 AM 50.6545 -8.3236 290° West 460 529 34,500 3,913 Level FlightAware UK
Tue 07:55:47 AM 50.6460 -8.3220 290° West 419 482 36,000  Climbing FlightAware ADS-B
Tue 07:56:06 AM 50.6707 -8.3921 290° West 462 532 34,500 -2,432 Descending FlightAware UK
Tue 07:56:24 AM 50.6828 -8.4435 290° West 462 532 34,500 3,462 Level FlightAware UK
Tue 07:56:32 AM 50.6790 -8.4600 290° West 419 482 36,000  Climbing FlightAware ADS-B
Tue 07:56:48 AM 50.6989 -8.5122 290° West 462 532 34,500 -2,647 Descending FlightAware UK
Tue 07:57:06 AM 50.7110 -8.5637 290° West 462 532 34,500 3,750 Level FlightAware UK
Tue 07:57:12 AM 50.7050 -8.5700 290° West 419 482 36,000  Climbing FlightAware ADS-B
Tue 07:57:30 AM 50.7271 -8.6325 290° West 460 529 34,500 -2,500 Descending FlightAware UK
Tue 07:57:48 AM 50.7393 -8.6840 290° West 460 529 34,500 4,091 Level FlightAware UK
Tue 07:57:52 AM 50.7320 -8.6840 290° West 420 483 36,000  Climbing FlightAware ADS-B
Tue 07:58:12 AM 50.7552 -8.7529 290° West 460 529 34,500 -2,368 Descending FlightAware UK
Tue 07:58:30 AM 50.7670 -8.8047 290° West 462 532 34,500 3,600 Level FlightAware UK
Tue 07:58:37 AM 50.7600 -8.8020 290° West 421 484 36,000  Climbing FlightAware ADS-B
Tue 07:58:54 AM 50.7828 -8.8737 290° West 462 532 34,500 -2,571 Descending FlightAware UK
Tue 07:59:12 AM 50.7948 -8.9256 290° West 460 529 34,500 3,913 Level FlightAware UK
Tue 07:59:17 AM 50.7900 -8.9300 290° West 421 484 36,000  Climbing FlightAware ADS-B
Tue 07:59:36 AM 50.8108 -8.9947 290° West 460 529 34,500  Descending FlightAware UK
Tue 08:00:07 AM 50.8200 -9.0600 290° West 421 484 36,000 1,184 Climbing FlightAware ADS-B
Tue 08:00:52 AM 50.8540 -9.2030 291° West 421 484 36,000  Level FlightAware ADS-B
Tue 08:01:52 AM 50.8940 -9.3800 290° West 421 484 36,000  Level FlightAware ADS-B
Tue 08:02:27 AM 50.9170 -9.4800 290° West 422 486 36,000  Level FlightAware ADS-B
Tue 08:03:17 AM 50.9490 -9.6180 290° West 422 486 36,000  Level FlightAware ADS-B
Tue 08:03:57 AM 50.9750 -9.7340 290° West 422 486 36,000 379 Level FlightAware ADS-B
Tue 08:04:52 AM 51.0100 -9.8890 290° West 424 488 36,600 720 Climbing FlightAware ADS-B
Tue 08:05:37 AM 51.0430 -10.0320 290° West 422 486 37,200 540 Climbing FlightAware ADS-B
Tue 08:06:32 AM 51.0760 -10.1840 289° West 420 483 37,500 480 Climbing FlightAware ADS-B
Tue 08:07:17 AM 51.1060 -10.3210 289° West 429 494 38,000 353 Climbing FlightAware ADS-B
Tue 08:07:57 AM 51.1320 -10.4380 290° West 432 497 38,000  Level FlightAware ADS-B
Tue 08:08:37 AM 51.1590 -10.5610 289° West 438 504 38,000  Level FlightAware ADS-B
Tue 08:09:17 AM 51.1820 -10.6700 289° West 436 502 38,000  Level FlightAware ADS-B
Tue 08:09:57 AM 51.2090 -10.7950 289° West 439 505 38,000  Level FlightAware ADS-B
Tue 08:10:42 AM 51.2380 -10.9290 289° West 437 503 38,000  Level FlightAware ADS-B
Tue 08:11:27 AM 51.2680 -11.0730 288° West 441 507 38,000  Level FlightAware ADS-B
Tue 08:12:07 AM 51.2930 -11.1900 289° West 442 509 38,000  Level FlightAware ADS-B
Tue 08:12:42 AM 51.3190 -11.3130 289° West 443 510 38,000  Level FlightAware ADS-B
Tue 08:13:32 AM 51.3470 -11.4560 287° West 445 512 38,000  Level FlightAware ADS-B
Tue 08:14:12 AM 51.3680 -11.5630 287° West 445 512 38,000  Level FlightAware ADS-B
Tue 08:14:52 AM 51.3880 -11.6700 287° West 445 512 38,000  Level FlightAware ADS-B
Tue 08:15:37 AM 51.4310 -11.8590 290° West 448 516 38,000  Level FlightAware ADS-B
Tue 08:16:17 AM 51.4580 -11.9900 288° West 448 516 38,000  Level FlightAware ADS-B
Tue 08:17:02 AM 51.4860 -12.1300 288° West 448 516 38,000  Level FlightAware ADS-B
Tue 08:17:57 AM 51.5190 -12.3040 287° West 448 516 38,000  Level FlightAware ADS-B
Tue 08:19:07 AM 51.5630 -12.5220 288° West 450 518 38,000  Level FlightAware ADS-B
Tue 08:19:42 AM 51.5830 -12.6310 286° West 447 514 38,000  Level FlightAware ADS-B
Tue 08:20:32 AM 51.6070 -12.7670 286° West 447 514 38,000  Level FlightAware ADS-B
Tue 08:21:12 AM 51.6270 -12.8760 287° West 447 514 38,000  Level FlightAware ADS-B
Tue 08:21:52 AM 51.6460 -12.9840 286° West 447 514 38,000  Level FlightAware ADS-B
Tue 08:22:32 AM 51.6650 -13.0930 286° West 447 514 38,000  Level FlightAware ADS-B
Tue 08:23:12 AM 51.6850 -13.2020 287° West 447 514 38,000  Level FlightAware ADS-B
Tue 08:23:52 AM 51.7040 -13.3110 286° West 447 514 38,000  Level FlightAware ADS-B
Tue 08:24:42 AM 51.7280 -13.4480 286° West 447 514 38,000  Level FlightAware ADS-B
Tue 08:25:22 AM 51.7480 -13.5570 287° West 447 514 38,000  Level FlightAware ADS-B
Tue 08:26:02 AM 51.7670 -13.6660 286° West 447 514 38,000  Level FlightAware ADS-B
Tue 08:26:42 AM 51.7860 -13.7750 286° West 447 514 38,000  Level FlightAware ADS-B
Tue 08:27:32 AM 51.8110 -13.9120 286° West 447 514 38,000  Level FlightAware ADS-B
Tue 08:28:12 AM 51.8300 -14.0210 286° West 447 514 38,000  Level FlightAware ADS-B
Tue 08:28:52 AM 51.8490 -14.1310 286° West 447 514 38,000  Level FlightAware ADS-B
Tue 08:31:00 AM 51.9141 -14.5309 285° West  Level Estimated
Tue 08:32:00 AM 51.9442 -14.7188 285° West  Level Estimated
Tue 08:33:00 AM 51.9739 -14.9068 284° West  Level Estimated
Tue 08:34:00 AM 52.0034 -15.0952 284° West  Level Estimated
Tue 08:35:00 AM 52.0326 -15.2838 284° West  Level Estimated
Tue 08:36:00 AM 52.0614 -15.4726 284° West  Level Estimated
Tue 08:37:00 AM 52.0891 -15.6556 284° West  Level Estimated
Tue 08:38:00 AM 52.1164 -15.8387 284° West  Level Estimated
Tue 08:39:00 AM 52.1435 -16.0221 284° West  Level Estimated
Tue 08:40:00 AM 52.1702 -16.2057 283° West  Level Estimated
Tue 08:41:00 AM 52.1967 -16.3896 283° West  Level Estimated
Tue 08:42:00 AM 52.2229 -16.5736 283° West  Level Estimated
Tue 08:43:00 AM 52.2490 -16.7586 283° West  Level Estimated
Tue 08:44:00 AM 52.2747 -16.9438 283° West  Level Estimated
Tue 08:45:00 AM 52.3001 -17.1292 283° West  Level Estimated
Tue 08:46:00 AM 52.3253 -17.3149 283° West  Level Estimated
Tue 08:47:00 AM 52.3502 -17.5007 282° West  Level Estimated
Tue 08:48:00 AM 52.3747 -17.6868 282° West  Level Estimated
Tue 08:49:00 AM 52.3990 -17.8731 282° West  Level Estimated
Tue 08:50:00 AM 52.4230 -18.0595 282° West  Level Estimated
Tue 08:51:00 AM 52.4467 -18.2462 282° West  Level Estimated
Tue 08:52:00 AM 52.4701 -18.4330 282° West  Level Estimated
Tue 08:53:00 AM 52.4932 -18.6201 282° West  Level Estimated
Tue 08:54:00 AM 52.5160 -18.8074 281° West  Level Estimated
Tue 08:55:00 AM 52.5385 -18.9948 281° West  Level Estimated
Tue 08:56:00 AM 52.5607 -19.1824 281° West  Level Estimated
Tue 08:57:00 AM 52.5826 -19.3703 281° West  Level Estimated
Tue 08:58:00 AM 52.6042 -19.5583 281° West  Level Estimated
Tue 08:59:00 AM 52.6256 -19.7465 281° West  Level Estimated
Tue 08:59:00 AM 52.0000 -20.0000 274° West 434 499 38,000  Level ETMS Enhanced Traffic Management System
Tue 09:00:00 AM 52.6466 -19.9349 280° West  Level Estimated
Tue 09:01:00 AM 52.6673 -20.1234 280° West  Level Estimated
Tue 09:02:00 AM 52.6879 -20.3134 280° West  Level Estimated
Tue 09:03:00 AM 52.7081 -20.5036 280° West  Level Estimated
Tue 09:04:00 AM 52.7281 -20.6939 280° West  Level Estimated
Tue 09:05:00 AM 52.0560 -21.5658 273° West 434 499 38,000  Level FlightAware Transoceanic
Tue 09:06:00 AM 52.0615 -21.7617 273° West 434 499 38,000  Level FlightAware Transoceanic
Tue 09:07:00 AM 52.0668 -21.9578 272° West 434 499 38,000  Level FlightAware Transoceanic
Tue 09:08:00 AM 52.0716 -22.1538 272° West 434 499 38,000  Level FlightAware Transoceanic
Tue 09:09:00 AM 52.0762 -22.3499 272° West 434 499 38,000  Level FlightAware Transoceanic
Tue 09:10:00 AM 52.0804 -22.5461 272° West 434 499 38,000  Level FlightAware Transoceanic
Tue 09:11:00 AM 52.0844 -22.7423 272° West 434 499 38,000  Level FlightAware Transoceanic
Tue 09:12:00 AM 52.0880 -22.9385 272° West 434 499 38,000  Level FlightAware Transoceanic
Tue 09:13:00 AM 52.0912 -23.1347 271° West 434 499 38,000  Level FlightAware Transoceanic
Tue 09:14:00 AM 52.0941 -23.3310 271° West 434 499 38,000  Level FlightAware Transoceanic
Tue 09:15:00 AM 52.0967 -23.5273 271° West 434 499 38,000  Level FlightAware Transoceanic
Tue 09:16:00 AM 52.0990 -23.7236 271° West 434 499 38,000  Level FlightAware Transoceanic
Tue 09:17:00 AM 52.1010 -23.9199 271° West 434 499 38,000  Level FlightAware Transoceanic
Tue 09:18:00 AM 52.1026 -24.1163 271° West 434 499 38,000  Level FlightAware Transoceanic
Tue 09:19:00 AM 52.1039 -24.3127 271° West 434 499 38,000  Level FlightAware Transoceanic
Tue 09:20:00 AM 52.1049 -24.5090 270° West 434 499 38,000  Level FlightAware Transoceanic
Tue 09:21:00 AM 52.1056 -24.7054 270° West 434 499 38,000  Level FlightAware Transoceanic
Tue 09:22:00 AM 52.1059 -24.9018 270° West 434 499 38,000  Level FlightAware Transoceanic
Tue 09:23:00 AM 52.1059 -25.0982 270° West 434 499 38,000  Level FlightAware Transoceanic
Tue 09:24:00 AM 52.1056 -25.2946 270° West 434 499 38,000  Level FlightAware Transoceanic
Tue 09:25:00 AM 52.1049 -25.4910 270° West 434 499 38,000  Level FlightAware Transoceanic
Tue 09:26:00 AM 52.1039 -25.6873 269° West 434 499 38,000  Level FlightAware Transoceanic
Tue 09:27:00 AM 52.1026 -25.8837 269° West 434 499 38,000  Level FlightAware Transoceanic
Tue 09:28:00 AM 52.1010 -26.0801 269° West 434 499 38,000  Level FlightAware Transoceanic
Tue 09:29:00 AM 52.0990 -26.2764 269° West 434 499 38,000  Level FlightAware Transoceanic
Tue 09:30:00 AM 52.0967 -26.4727 269° West 434 499 38,000  Level FlightAware Transoceanic
Tue 09:31:00 AM 52.0941 -26.6690 269° West 434 499 38,000  Level FlightAware Transoceanic
Tue 09:32:00 AM 52.0912 -26.8653 269° West 434 499 38,000  Level FlightAware Transoceanic
Tue 09:33:00 AM 52.0880 -27.0615 268° West 434 499 38,000  Level FlightAware Transoceanic
Tue 09:34:00 AM 52.0844 -27.2577 268° West 434 499 38,000  Level FlightAware Transoceanic
Tue 09:35:00 AM 52.0804 -27.4539 268° West 434 499 38,000  Level FlightAware Transoceanic
Tue 09:36:00 AM 52.0762 -27.6501 268° West 434 499 38,000  Level FlightAware Transoceanic
Tue 09:37:00 AM 52.0716 -27.8462 268° West 434 499 38,000  Level FlightAware Transoceanic
Tue 09:38:00 AM 52.0668 -28.0422 268° West 434 499 38,000  Level FlightAware Transoceanic
Tue 09:39:00 AM 52.0615 -28.2383 267° West 434 499 38,000  Level FlightAware Transoceanic
Tue 09:40:00 AM 52.0560 -28.4342 267° West 434 499 38,000  Level FlightAware Transoceanic
Tue 09:41:00 AM 52.0501 -28.6302 267° West 434 499 38,000  Level FlightAware Transoceanic
Tue 09:42:00 AM 52.0439 -28.8260 267° West 434 499 38,000  Level FlightAware Transoceanic
Tue 09:43:00 AM 52.0374 -29.0219 267° West 434 499 38,000  Level FlightAware Transoceanic
Tue 09:44:00 AM 52.0306 -29.2176 267° West 434 499 38,000  Level FlightAware Transoceanic
Tue 09:45:00 AM 52.0234 -29.4133 267° West 434 499 38,000  Level FlightAware Transoceanic
Tue 09:46:00 AM 52.0159 -29.6089 266° West 434 499 38,000  Level FlightAware Transoceanic
Tue 09:47:00 AM 52.0081 -29.8045 266° West 434 499 38,000  Level FlightAware Transoceanic
Tue 09:48:00 AM 52.0003 -29.9941 266° West  Level FlightAware Approximate
Tue 09:49:00 AM 51.9920 -30.1837 266° West  Level FlightAware Approximate
Tue 09:49:03 AM 52.0000 -30.0000 256° West 431 496 38,000  Level ETMS Enhanced Traffic Management System
Tue 09:50:00 AM 51.9739 -30.1731 256° West  Level FlightAware Approximate
Tue 09:51:00 AM 51.9458 -30.3574 256° West  Level FlightAware Approximate
Tue 09:52:00 AM 51.9174 -30.5415 256° West  Level FlightAware Approximate
Tue 09:53:00 AM 51.8887 -30.7254 256° West  Level FlightAware Approximate
Tue 09:54:00 AM 51.8597 -30.9090 256° West  Level FlightAware Approximate
Tue 09:55:00 AM 51.7631 -31.5064 255° West 431 496 38,000  Level FlightAware Transoceanic
Tue 09:56:00 AM 51.7322 -31.6936 255° West 431 496 38,000  Level FlightAware Transoceanic
Tue 09:57:00 AM 51.7009 -31.8805 255° West 431 496 38,000  Level FlightAware Transoceanic
Tue 09:58:00 AM 51.6694 -32.0672 255° West 431 496 38,000  Level FlightAware Transoceanic
Tue 09:59:00 AM 51.6375 -32.2536 255° West 431 496 38,000  Level FlightAware Transoceanic
Tue 10:00:00 AM 51.6054 -32.4397 254° West 431 496 38,000  Level FlightAware Transoceanic
Tue 10:01:00 AM 51.5730 -32.6256 254° West 431 496 38,000  Level FlightAware Transoceanic
Tue 10:02:00 AM 51.5402 -32.8112 254° West 431 496 38,000  Level FlightAware Transoceanic
Tue 10:03:00 AM 51.5072 -32.9965 254° West 431 496 38,000  Level FlightAware Transoceanic
Tue 10:04:00 AM 51.4739 -33.1816 254° West 431 496 38,000  Level FlightAware Transoceanic
Tue 10:05:00 AM 51.4403 -33.3663 254° West 431 496 38,000  Level FlightAware Transoceanic
Tue 10:06:00 AM 51.4064 -33.5509 254° West 431 496 38,000  Level FlightAware Transoceanic
Tue 10:07:00 AM 51.3722 -33.7351 253° West 431 496 38,000  Level FlightAware Transoceanic
Tue 10:08:00 AM 51.3378 -33.9191 253° West 431 496 38,000  Level FlightAware Transoceanic
Tue 10:09:00 AM 51.3030 -34.1028 253° West 431 496 38,000  Level FlightAware Transoceanic
Tue 10:10:00 AM 51.2680 -34.2862 253° West 431 496 38,000  Level FlightAware Transoceanic
Tue 10:11:00 AM 51.2326 -34.4693 253° West 431 496 38,000  Level FlightAware Transoceanic
Tue 10:12:00 AM 51.1970 -34.6522 253° West 431 496 38,000  Level FlightAware Transoceanic
Tue 10:13:00 AM 51.1611 -34.8347 253° West 431 496 38,000  Level FlightAware Transoceanic
Tue 10:14:00 AM 51.1249 -35.0170 252° West 431 496 38,000  Level FlightAware Transoceanic
Tue 10:15:00 AM 51.0885 -35.1990 252° West 431 496 38,000  Level FlightAware Transoceanic
Tue 10:16:00 AM 51.0517 -35.3807 252° West 431 496 38,000  Level FlightAware Transoceanic
Tue 10:17:00 AM 51.0147 -35.5621 252° West 431 496 38,000  Level FlightAware Transoceanic
Tue 10:18:00 AM 50.9774 -35.7433 252° West 431 496 38,000  Level FlightAware Transoceanic
Tue 10:19:00 AM 50.9398 -35.9241 252° West 431 496 38,000  Level FlightAware Transoceanic
Tue 10:20:00 AM 50.9019 -36.1046 252° West 431 496 38,000  Level FlightAware Transoceanic
Tue 10:21:00 AM 50.8638 -36.2849 251° West 431 496 38,000  Level FlightAware Transoceanic
Tue 10:22:00 AM 50.8254 -36.4648 251° West 431 496 38,000  Level FlightAware Transoceanic
Tue 10:23:00 AM 50.7867 -36.6445 251° West 431 496 38,000  Level FlightAware Transoceanic
Tue 10:24:00 AM 50.7477 -36.8238 251° West 431 496 38,000  Level FlightAware Transoceanic
Tue 10:25:00 AM 50.7084 -37.0029 251° West 431 496 38,000  Level FlightAware Transoceanic
Tue 10:26:00 AM 50.6689 -37.1817 251° West 431 496 38,000  Level FlightAware Transoceanic
Tue 10:27:00 AM 50.6291 -37.3601 251° West 431 496 38,000  Level FlightAware Transoceanic
Tue 10:28:00 AM 50.5891 -37.5383 250° West 431 496 38,000  Level FlightAware Transoceanic
Tue 10:29:00 AM 50.5487 -37.7161 250° West 431 496 38,000  Level FlightAware Transoceanic
Tue 10:30:00 AM 50.5081 -37.8937 250° West 431 496 38,000  Level FlightAware Transoceanic
Tue 10:31:00 AM 50.4672 -38.0709 250° West 431 496 38,000  Level FlightAware Transoceanic
Tue 10:32:00 AM 50.4261 -38.2478 250° West 431 496 38,000  Level FlightAware Transoceanic
Tue 10:33:00 AM 50.3847 -38.4244 250° West 431 496 38,000  Level FlightAware Transoceanic
Tue 10:34:00 AM 50.3430 -38.6007 250° West 431 496 38,000  Level FlightAware Transoceanic
Tue 10:35:00 AM 50.3010 -38.7767 249° West 431 496 38,000  Level FlightAware Transoceanic
Tue 10:36:00 AM 50.2588 -38.9524 249° West 431 496 38,000  Level FlightAware Transoceanic
Tue 10:37:00 AM 50.2163 -39.1278 249° West 431 496 38,000  Level FlightAware Transoceanic
Tue 10:38:00 AM 50.1736 -39.3029 249° West 431 496 38,000  Level FlightAware Transoceanic
Tue 10:39:00 AM 50.1306 -39.4776 249° West 431 496 38,000  Level FlightAware Transoceanic
Tue 10:40:00 AM 50.0873 -39.6521 249° West 431 496 38,000  Level FlightAware Transoceanic
Tue 10:41:00 AM 50.0438 -39.8262 249° West 431 496 38,000  Level FlightAware Transoceanic
Tue 10:42:00 AM 50.0011 -39.9957 249° West  Level FlightAware Approximate
Tue 10:43:00 AM 49.9580 -40.1649 248° West  Level FlightAware Approximate
Tue 10:44:00 AM 49.9736 -40.1679 256° West  Level FlightAware Approximate
Tue 10:45:00 AM 49.9456 -40.3444 256° West  Level FlightAware Approximate
Tue 10:45:00 AM 50.0000 -40.0000 257° West 425 489 38,000  Level ETMS Enhanced Traffic Management System
Tue 10:46:00 AM 49.9173 -40.5208 256° West  Level FlightAware Approximate
Tue 10:47:00 AM 49.8887 -40.6970 256° West  Level FlightAware Approximate
Tue 10:48:00 AM 49.8599 -40.8729 256° West  Level FlightAware Approximate
Tue 10:49:00 AM 49.8307 -41.0487 256° West  Level FlightAware Approximate
Tue 10:50:00 AM 49.8014 -41.2242 256° West  Level FlightAware Approximate
Tue 10:51:00 AM 49.7473 -41.6027 256° West 425 489 38,000  Level FlightAware Transoceanic
Tue 10:52:00 AM 49.7179 -41.7797 256° West 425 489 38,000  Level FlightAware Transoceanic
Tue 10:53:00 AM 49.6881 -41.9565 255° West 425 489 38,000  Level FlightAware Transoceanic
Tue 10:54:00 AM 49.6582 -42.1331 255° West 425 489 38,000  Level FlightAware Transoceanic
Tue 10:55:00 AM 49.6279 -42.3095 255° West 425 489 38,000  Level FlightAware Transoceanic
Tue 10:56:00 AM 49.5974 -42.4856 255° West 425 489 38,000  Level FlightAware Transoceanic
Tue 10:57:00 AM 49.5667 -42.6616 255° West 425 489 38,000  Level FlightAware Transoceanic
Tue 10:58:00 AM 49.5356 -42.8373 255° West 425 489 38,000  Level FlightAware Transoceanic
Tue 10:59:00 AM 49.5043 -43.0128 255° West 425 489 38,000  Level FlightAware Transoceanic
Tue 11:00:00 AM 49.4727 -43.1880 254° West 425 489 38,000  Level FlightAware Transoceanic
Tue 11:01:00 AM 49.4409 -43.3631 254° West 425 489 38,000  Level FlightAware Transoceanic
Tue 11:02:00 AM 49.4088 -43.5379 254° West 425 489 38,000  Level FlightAware Transoceanic
Tue 11:03:00 AM 49.3764 -43.7124 254° West 425 489 38,000  Level FlightAware Transoceanic
Tue 11:04:00 AM 49.3438 -43.8868 254° West 425 489 38,000  Level FlightAware Transoceanic
Tue 11:05:00 AM 49.3109 -44.0609 254° West 425 489 38,000  Level FlightAware Transoceanic
Tue 11:06:00 AM 49.2777 -44.2348 254° West 425 489 38,000  Level FlightAware Transoceanic
Tue 11:07:00 AM 49.2443 -44.4084 254° West 425 489 38,000  Level FlightAware Transoceanic
Tue 11:08:00 AM 49.2107 -44.5818 253° West 425 489 38,000  Level FlightAware Transoceanic
Tue 11:09:00 AM 49.1767 -44.7550 253° West 425 489 38,000  Level FlightAware Transoceanic
Tue 11:10:00 AM 49.1425 -44.9280 253° West 425 489 38,000  Level FlightAware Transoceanic
Tue 11:11:00 AM 49.1081 -45.1007 253° West 425 489 38,000  Level FlightAware Transoceanic
Tue 11:12:00 AM 49.0734 -45.2731 253° West 425 489 38,000  Level FlightAware Transoceanic
Tue 11:13:00 AM 49.0384 -45.4453 253° West 425 489 38,000  Level FlightAware Transoceanic
Tue 11:14:00 AM 49.0032 -45.6173 253° West 425 489 38,000  Level FlightAware Transoceanic
Tue 11:15:00 AM 48.9677 -45.7890 252° West 425 489 38,000  Level FlightAware Transoceanic
Tue 11:16:00 AM 48.9320 -45.9605 252° West 425 489 38,000  Level FlightAware Transoceanic
Tue 11:17:00 AM 48.8960 -46.1317 252° West 425 489 38,000  Level FlightAware Transoceanic
Tue 11:18:00 AM 48.8598 -46.3027 252° West 425 489 38,000  Level FlightAware Transoceanic
Tue 11:19:00 AM 48.8233 -46.4735 252° West 425 489 38,000  Level FlightAware Transoceanic
Tue 11:20:00 AM 48.7866 -46.6440 252° West 425 489 38,000  Level FlightAware Transoceanic
Tue 11:21:00 AM 48.7496 -46.8142 252° West 425 489 38,000  Level FlightAware Transoceanic
Tue 11:22:00 AM 48.7123 -46.9842 252° West 425 489 38,000  Level FlightAware Transoceanic
Tue 11:23:00 AM 48.6748 -47.1539 251° West 425 489 38,000  Level FlightAware Transoceanic
Tue 11:24:00 AM 48.6371 -47.3234 251° West 425 489 38,000  Level FlightAware Transoceanic
Tue 11:25:00 AM 48.5991 -47.4926 251° West 425 489 38,000  Level FlightAware Transoceanic
Tue 11:26:00 AM 48.5609 -47.6616 251° West 425 489 38,000  Level FlightAware Transoceanic
Tue 11:27:00 AM 48.5224 -47.8303 251° West 425 489 38,000  Level FlightAware Transoceanic
Tue 11:28:00 AM 48.4837 -47.9988 251° West 425 489 38,000  Level FlightAware Transoceanic
Tue 11:29:00 AM 48.4447 -48.1670 251° West 425 489 38,000  Level FlightAware Transoceanic
Tue 11:30:00 AM 48.4055 -48.3350 251° West 425 489 38,000  Level FlightAware Transoceanic
Tue 11:31:00 AM 48.3660 -48.5026 250° West 425 489 38,000  Level FlightAware Transoceanic
Tue 11:32:00 AM 48.3263 -48.6701 250° West 425 489 38,000  Level FlightAware Transoceanic
Tue 11:33:00 AM 48.2864 -48.8372 250° West 425 489 38,000  Level FlightAware Transoceanic
Tue 11:34:00 AM 48.2462 -49.0041 250° West 425 489 38,000  Level FlightAware Transoceanic
Tue 11:35:00 AM 48.2057 -49.1708 250° West 425 489 38,000  Level FlightAware Transoceanic
Tue 11:36:00 AM 48.1651 -49.3372 250° West 425 489 38,000  Level FlightAware Transoceanic
Tue 11:37:00 AM 48.1242 -49.5033 250° West 425 489 38,000  Level FlightAware Transoceanic
Tue 11:38:00 AM 48.0830 -49.6691 250° West 425 489 38,000  Level FlightAware Transoceanic
Tue 11:39:00 AM 48.0416 -49.8347 249° West 425 489 38,000  Level FlightAware Transoceanic
Tue 11:40:00 AM 47.9964 -49.9960 247° West  Level FlightAware Approximate
Tue 11:41:00 AM 48.0000 -49.9955 270° West  Level FlightAware Approximate
Tue 11:42:00 AM 47.9705 -50.1645 255° West  Level FlightAware Approximate
Tue 11:42:00 AM 48.0000 -50.0000 255° West 415 478 38,000  Level ETMS Enhanced Traffic Management System
Tue 11:43:00 AM 47.9400 -50.3332 255° West  Level FlightAware Approximate
Tue 11:43:23 AM 47.9333 -50.2667 256° West 410 472 38,000  Level Gander Center
Tue 11:44:00 AM 47.9093 -50.5017 255° West  Level FlightAware Approximate
Tue 11:44:23 AM 47.9000 -50.4167 252° West 410 472 38,000  Level Gander Center
Tue 11:45:00 AM 47.8788 -50.6670 255° West  Level FlightAware Approximate
Tue 11:45:23 AM 47.9000 -50.5667 270° West 410 472 38,000  Level Gander Center
Tue 11:46:00 AM 47.8481 -50.8321 255° West  Level FlightAware Approximate
Tue 11:47:00 AM 47.8172 -50.9970 254° West  Level FlightAware Approximate
Tue 11:48:00 AM 47.8181 -50.9924 255° West  Level FlightAware Approximate
Tue 11:49:00 AM 47.7895 -51.1582 256° West  Level FlightAware Approximate
Tue 11:51:42 AM 47.9080 -51.7180 270° West 410 472 39,900  Level FlightAware ADS-B
Tue 11:52:12 AM 47.9080 -51.8020 270° West 419 482 40,000 71 Climbing FlightAware ADS-B
Tue 11:53:07 AM 47.9070 -51.9600 270° West 416 479 40,000  Level FlightAware ADS-B
Tue 11:53:47 AM 47.9060 -52.0740 269° West 408 470 40,000  Level FlightAware ADS-B
Tue 11:54:27 AM 47.9050 -52.1770 269° West 403 464 40,000  Level FlightAware ADS-B
Tue 11:55:12 AM 47.9040 -52.3080 269° West 399 459 40,000  Level FlightAware ADS-B
Tue 11:55:52 AM 47.9030 -52.4210 269° West 401 461 40,000  Level FlightAware ADS-B
Tue 11:56:32 AM 47.9020 -52.5300 269° West 405 466 40,000  Level FlightAware ADS-B
Tue 11:57:17 AM 47.9000 -52.6540 269° West 410 472 40,000  Level FlightAware ADS-B
Tue 11:57:57 AM 47.8990 -52.7680 269° West 414 476 40,000  Level FlightAware ADS-B
Tue 11:58:42 AM 47.8980 -52.8970 269° West 413 475 40,000  Level FlightAware ADS-B
Tue 11:59:22 AM 47.8960 -53.0110 269° West 410 472 40,000  Level FlightAware ADS-B
Tue 12:00:02 PM 47.8950 -53.1230 269° West 407 468 40,000  Level FlightAware ADS-B
Tue 12:00:47 PM 47.8930 -53.2460 269° West 407 468 40,000  Level FlightAware ADS-B
Tue 12:01:27 PM 47.8910 -53.3590 269° West 407 468 40,000  Level FlightAware ADS-B
Tue 12:02:07 PM 47.8900 -53.4720 269° West 407 468 40,000  Level FlightAware ADS-B
Tue 12:02:52 PM 47.8870 -53.5960 268° West 409 471 40,000  Level FlightAware ADS-B
Tue 12:03:37 PM 47.8850 -53.7260 269° West 416 479 40,000  Level FlightAware ADS-B
Tue 12:04:17 PM 47.8830 -53.8400 269° West 419 482 40,000  Level FlightAware ADS-B
Tue 12:04:57 PM 47.8810 -53.9560 269° West 417 480 40,000  Level FlightAware ADS-B
Tue 12:05:42 PM 47.8780 -54.0800 268° West 412 474 40,000  Level FlightAware ADS-B
Tue 12:06:22 PM 47.8760 -54.1910 269° West 408 470 40,000  Level FlightAware ADS-B
Tue 12:07:07 PM 47.8730 -54.3160 268° West 408 470 40,000  Level FlightAware ADS-B
Tue 12:07:47 PM 47.8710 -54.4290 269° West 410 472 40,000  Level FlightAware ADS-B
Tue 12:08:27 PM 47.8680 -54.5450 268° West 410 472 40,000  Level FlightAware ADS-B
Tue 12:09:12 PM 47.8650 -54.6710 268° West 416 479 40,000  Level FlightAware ADS-B
Tue 12:09:52 PM 47.8620 -54.7840 268° West 419 482 40,000  Level FlightAware ADS-B
Tue 12:10:32 PM 47.8600 -54.9010 269° West 422 486 40,000  Level FlightAware ADS-B
Tue 12:11:12 PM 47.8570 -55.0150 268° West 422 486 40,000  Level FlightAware ADS-B
Tue 12:11:57 PM 47.8530 -55.1500 268° West 424 488 40,000  Level FlightAware ADS-B
Tue 12:12:42 PM 47.8500 -55.2780 268° West 423 487 40,000  Level FlightAware ADS-B
Tue 12:13:22 PM 47.8460 -55.3930 267° West 423 487 40,000  Level FlightAware ADS-B
Tue 12:14:07 PM 47.8430 -55.5270 268° West 421 484 40,000  Level FlightAware ADS-B
Tue 12:14:47 PM 47.8390 -55.6430 267° West 420 483 40,000  Level FlightAware ADS-B
Tue 12:15:27 PM 47.8360 -55.7570 268° West 420 483 40,000  Level FlightAware ADS-B
Tue 12:16:12 PM 47.8320 -55.8830 267° West 419 482 40,000  Level FlightAware ADS-B
Tue 12:16:52 PM 47.8280 -55.9940 267° West 419 482 40,000  Level FlightAware ADS-B
Tue 12:17:27 PM 47.8250 -56.0940 267° West 418 481 40,000  Level FlightAware ADS-B
Tue 12:18:17 PM 47.8200 -56.2430 267° West 417 480 40,000  Level FlightAware ADS-B
Tue 12:18:57 PM 47.8160 -56.3560 267° West 422 486 40,000  Level FlightAware ADS-B
Tue 12:19:42 PM 47.8110 -56.4890 267° West 423 487 40,000  Level FlightAware ADS-B
Tue 12:20:22 PM 47.8070 -56.6040 267° West 423 487 40,000  Level FlightAware ADS-B
Tue 12:21:02 PM 47.8030 -56.7230 267° West 423 487 40,000  Level FlightAware ADS-B
Tue 12:21:47 PM 47.7980 -56.8420 266° West 424 488 40,000  Level FlightAware ADS-B
Tue 12:22:27 PM 47.7930 -56.9410 266° West 424 488 40,000  Level FlightAware ADS-B
Tue 12:23:07 PM 47.7880 -57.0400 266° West 424 488 40,000  Level FlightAware ADS-B
Tue 12:23:47 PM 47.7840 -57.1980 268° West 427 491 40,000  Level FlightAware ADS-B
Tue 12:24:32 PM 47.7780 -57.3170 266° West 427 491 40,000  Level FlightAware ADS-B
Tue 12:25:12 PM 47.7730 -57.4500 267° West 425 489 40,000  Level FlightAware ADS-B
Tue 12:25:52 PM 47.7680 -57.5570 266° West 425 489 40,000  Level FlightAware ADS-B
Tue 12:26:37 PM 47.7620 -57.6710 266° West 425 489 40,000  Level FlightAware ADS-B
Tue 12:27:17 PM 47.7580 -57.7710 267° West 425 489 40,000  Level FlightAware ADS-B
Tue 12:29:02 PM 47.7400 -58.1180 266° West 40,000  Level FlightAware ADS-B
Tue 12:29:42 PM 47.7340 -58.2280 265° West 426 490 40,000  Level FlightAware ADS-B
Tue 12:30:17 PM 47.7280 -58.3170 264° West 426 490 40,000  Level FlightAware ADS-B
Tue 12:31:12 PM 47.7200 -58.4850 266° West 425 489 40,000  Level FlightAware ADS-B
Tue 12:32:17 PM 47.7090 -58.6780 265° West 427 491 40,000  Level FlightAware ADS-B
Tue 12:32:57 PM 47.7020 -58.8000 265° West 427 491 40,000  Level FlightAware ADS-B
Tue 12:33:42 PM 47.6950 -58.9270 265° West 433 498 40,000  Level FlightAware ADS-B
Tue 12:34:17 PM 47.6880 -59.0280 264° West 434 499 40,000  Level FlightAware ADS-B
Tue 12:35:17 PM 47.6770 -59.2030 265° West 430 495 40,000  Level FlightAware ADS-B
Tue 12:35:57 PM 47.6690 -59.3030 263° West 430 495 40,000  Level FlightAware ADS-B
Tue 12:36:42 PM 47.6610 -59.4520 265° West 426 490 40,000  Level FlightAware ADS-B
Tue 12:37:37 PM 47.6500 -59.6100 264° West 428 493 40,000  Level FlightAware ADS-B
Tue 12:38:17 PM 47.6430 -59.7090 264° West 428 493 40,000  Level FlightAware ADS-B
Tue 12:38:57 PM 47.6360 -59.8090 264° West 428 493 40,000  Level FlightAware ADS-B
Tue 12:39:37 PM 47.6290 -59.9080 264° West 428 493 40,000  Level FlightAware ADS-B
Tue 12:40:22 PM 47.6160 -60.0990 264° West 439 505 40,000  Level FlightAware ADS-B
Tue 12:41:07 PM 47.6050 -60.2320 263° West 439 505 40,000  Level FlightAware ADS-B
Tue 12:41:47 PM 47.5970 -60.3580 265° West 433 498 40,000  Level FlightAware ADS-B
Tue 12:42:32 PM 47.5870 -60.4780 263° West 433 498 40,000  Level FlightAware ADS-B
Tue 12:43:12 PM 47.5790 -60.5780 263° West 433 498 40,000  Level FlightAware ADS-B
Tue 12:43:52 PM 47.5700 -60.6790 263° West 433 498 40,000  Level FlightAware ADS-B
Tue 12:44:32 PM 47.5620 -60.7790 263° West 433 498 40,000  Level FlightAware ADS-B
Tue 12:45:12 PM 47.5540 -60.8790 263° West 433 498 40,000  Level FlightAware ADS-B
Tue 12:45:57 PM 47.5380 -61.0960 264° West 431 496 40,000  Level FlightAware ADS-B
Tue 12:46:42 PM 47.5270 -61.2240 263° West 431 496 40,000  Level FlightAware ADS-B
Tue 12:47:22 PM 47.5170 -61.3420 263° West 431 496 40,000  Level FlightAware ADS-B
Tue 12:48:07 PM 47.5060 -61.4760 263° West 429 494 40,000  Level FlightAware ADS-B
Tue 12:48:47 PM 47.4950 -61.5900 262° West 427 491 40,000  Level FlightAware ADS-B
Tue 12:49:32 PM 47.4850 -61.7070 263° West 425 489 40,000  Level FlightAware ADS-B
Tue 12:50:12 PM 47.4740 -61.8310 263° West 423 487 40,000  Level FlightAware ADS-B
Tue 12:51:17 PM 47.4570 -62.0100 262° West 422 486 40,000  Level FlightAware ADS-B
Tue 12:51:57 PM 47.4480 -62.1070 262° West 422 486 40,000  Level FlightAware ADS-B
Tue 12:52:47 PM 47.4360 -62.2290 262° West 422 486 40,000  Level FlightAware ADS-B
Tue 12:53:27 PM 47.4270 -62.3260 262° West 422 486 40,000  Level FlightAware ADS-B
Tue 12:54:07 PM 47.4180 -62.4230 262° West 422 486 40,000  Level FlightAware ADS-B
Tue 12:54:57 PM 47.4060 -62.5450 262° West 422 486 40,000  Level FlightAware ADS-B
Tue 12:55:37 PM 47.3970 -62.6420 262° West 422 486 40,000  Level FlightAware ADS-B
Tue 12:56:17 PM 47.3880 -62.7390 262° West 422 486 40,000  Level FlightAware ADS-B
Tue 12:56:57 PM 47.3790 -62.8360 262° West 422 486 40,000  Level FlightAware ADS-B
Tue 12:57:37 PM 47.3690 -62.9330 261° West 422 486 40,000  Level FlightAware ADS-B
Tue 12:58:17 PM 47.3600 -63.0300 262° West 422 486 40,000  Level FlightAware ADS-B
Tue 12:59:07 PM 47.3490 -63.1510 262° West 422 486 40,000  Level FlightAware ADS-B
Tue 12:59:47 PM 47.3390 -63.2480 261° West 422 486 40,000  Level FlightAware ADS-B
Tue 01:00:27 PM 47.3300 -63.3450 262° West 422 486 40,000  Level FlightAware ADS-B
Tue 01:01:23 PM 47.2667 -63.7167 262° West 420 483 40,000  Level Gander Center
Tue 01:01:40 PM 47.2667 -63.7500 270° West 420 483 40,000  Level Moncton Center
Tue 01:02:40 PM 47.2500 -63.9333 262° West 420 483 40,000  Level Moncton Center
Tue 01:03:40 PM 47.2333 -64.1000 262° West 420 483 40,000  Level Moncton Center
Tue 01:04:40 PM 47.2167 -64.2667 262° West 420 483 40,000  Level Moncton Center
Tue 01:05:40 PM 47.1833 -64.4500 255° West 420 483 40,000  Level Moncton Center
Tue 01:06:40 PM 47.1667 -64.6167 262° West 420 483 40,000  Level Moncton Center
Tue 01:07:40 PM 47.1500 -64.7833 262° West 420 483 40,000  Level Moncton Center
Tue 01:08:40 PM 47.1333 -64.9333 261° West 420 483 40,000  Level Moncton Center
Tue 01:09:23 PM 47.1167 -65.0833 261° West 420 483 40,000  Level Gander Center
Tue 01:09:40 PM 47.1167 -65.1333 270° West 420 483 40,000  Level Moncton Center
Tue 01:10:40 PM 47.1000 -65.2833 261° West 420 483 40,000  Level Moncton Center
Tue 01:11:39 PM 47.0833 -65.4500 262° West 410 472 40,000  Level Moncton Center
Tue 01:12:40 PM 47.0333 -65.6333 248° West 420 483 40,000  Level Moncton Center
Tue 01:13:39 PM 47.0167 -65.8000 262° West 410 472 40,000  Level Moncton Center
Tue 01:14:40 PM 47.0000 -65.9667 262° West 420 483 40,000  Level Moncton Center
Tue 01:15:40 PM 46.9833 -66.1167 261° West 420 483 40,000  Level Moncton Center
Tue 01:16:40 PM 46.9667 -66.2833 262° West 420 483 40,000  Level Moncton Center
Tue 01:17:39 PM 46.9500 -66.4500 262° West 420 483 40,000  Level Moncton Center
Tue 01:18:40 PM 46.9167 -66.6333 255° West 420 483 40,000  Level Moncton Center
Tue 01:19:40 PM 46.8833 -66.8000 254° West 420 483 40,000  Level Moncton Center
Tue 01:25:37 PM 46.8210 -67.8040 254° West 418 481 40,000  Level FlightAware ADS-B
Tue 01:30:12 PM 46.7350 -68.5720 261° West 421 484 40,000  Level FlightAware ADS-B
Tue 01:32:17 PM 46.6630 -68.9040 253° West 421 484 40,000  Level FlightAware ADS-B
Tue 01:32:52 PM 46.6410 -69.0040 252° West 422 486 40,000  Level FlightAware ADS-B
Tue 01:33:42 PM 46.6110 -69.1440 253° West 422 486 40,000  Level FlightAware ADS-B
Tue 01:34:22 PM 46.5880 -69.2440 252° West 420 483 40,000  Level FlightAware ADS-B
Tue 01:34:57 PM 46.5680 -69.3330 252° West 420 483 40,000  Level FlightAware ADS-B
Tue 01:35:37 PM 46.5440 -69.4370 251° West 420 483 40,000  Level FlightAware ADS-B
Tue 01:36:22 PM 46.5150 -69.5670 252° West 421 484 40,000  Level FlightAware ADS-B
Tue 01:37:12 PM 46.4860 -69.6960 252° West 423 487 40,000  Level FlightAware ADS-B
Tue 01:37:52 PM 46.4620 -69.8010 252° West 422 486 40,000  Level FlightAware ADS-B
Tue 01:38:32 PM 46.4360 -69.9140 252° West 424 488 40,000  Level FlightAware ADS-B
Tue 01:39:17 PM 46.4080 -70.0350 251° West 423 487 40,000  Level FlightAware ADS-B
Tue 01:39:57 PM 46.3840 -70.1420 252° West 423 487 40,000  Level FlightAware ADS-B
Tue 01:40:37 PM 46.3600 -70.2460 252° West 425 489 40,000  Level FlightAware ADS-B
Tue 01:41:17 PM 46.3380 -70.3470 253° West 424 488 40,000  Level FlightAware ADS-B
Tue 01:42:02 PM 46.3080 -70.4790 252° West 426 490 40,000  Level FlightAware ADS-B
Tue 01:42:42 PM 46.2820 -70.5880 251° West 426 490 40,000  Level FlightAware ADS-B
Tue 01:43:27 PM 46.2550 -70.7030 251° West 425 489 40,000  Level FlightAware ADS-B
Tue 01:44:07 PM 46.2300 -70.8100 251° West 427 491 40,000  Level FlightAware ADS-B
Tue 01:44:52 PM 46.2000 -70.9340 251° West 426 490 40,000 -212 Level FlightAware ADS-B
Tue 01:45:32 PM 46.1760 -71.0360 251° West 424 488 39,700 -988 Descending FlightAware ADS-B
Tue 01:46:17 PM 46.1450 -71.1640 251° West 432 497 38,600 -1,412 Descending FlightAware ADS-B
Tue 01:46:57 PM 46.1200 -71.2710 251° West 435 501 37,700 -1,271 Descending FlightAware ADS-B
Tue 01:47:42 PM 46.0920 -71.3860 251° West 437 503 36,800 -1,200 Descending FlightAware ADS-B
Tue 01:48:22 PM 46.0650 -71.4970 251° West 439 505 36,000 -2,175 Descending FlightAware ADS-B
Tue 01:49:02 PM 46.0370 -71.6110 251° West 442 509 33,900 -3,247 Descending FlightAware ADS-B
Tue 01:49:47 PM 46.0040 -71.7460 251° West 441 507 31,400 -3,035 Descending FlightAware ADS-B
Tue 01:50:27 PM 45.9770 -71.8560 251° West 431 496 29,600 -2,625 Descending FlightAware ADS-B
Tue 01:51:07 PM 45.9510 -71.9610 250° West 421 484 27,900 -2,259 Descending FlightAware ADS-B
Tue 01:51:52 PM 45.9220 -72.0770 250° West 399 459 26,400 -1,765 Descending FlightAware ADS-B
Tue 01:52:32 PM 45.8980 -72.1720 250° West 376 433 25,400 -2,550 Descending FlightAware ADS-B
Tue 01:53:12 PM 45.8740 -72.2670 250° West 391 450 23,000 -3,176 Descending FlightAware ADS-B
Tue 01:53:57 PM 45.8460 -72.3770 250° West 386 444 20,900 -2,471 Descending FlightAware ADS-B
Tue 01:54:37 PM 45.8220 -72.4700 250° West 373 429 19,500 -2,259 Descending FlightAware ADS-B
Tue 01:55:22 PM 45.7960 -72.5730 250° West 362 417 17,700 -2,400 Descending FlightAware ADS-B
Tue 01:56:02 PM 45.7730 -72.6620 250° West 355 409 16,100 -2,682 Descending FlightAware ADS-B
Tue 01:56:47 PM 45.7500 -72.7600 251° West 359 413 13,900 -2,824 Descending FlightAware ADS-B
Tue 01:57:27 PM 45.7380 -72.8550 260° West 352 405 12,100 -2,550 Descending FlightAware ADS-B
Tue 01:58:07 PM 45.7300 -72.9480 263° West 345 397 10,500 -1,553 Descending FlightAware ADS-B
Tue 01:58:52 PM 45.7210 -73.0430 262° West 306 352 9,900 -600 Descending FlightAware ADS-B
Tue 01:59:17 PM 45.7140 -73.0920 258° West 285 328 9,800 -873 Descending FlightAware ADS-B
Tue 01:59:47 PM 45.7050 -73.1470 257° West 278 320 9,100 -1,333 Descending FlightAware ADS-B
Tue 02:00:02 PM 45.7010 -73.1710 257° West 277 319 8,800 -1,500 Descending FlightAware ADS-B
Tue 02:00:27 PM 45.6940 -73.2180 258° West 275 316 8,100 -1,527 Descending FlightAware ADS-B
Tue 02:00:57 PM 45.6860 -73.2700 258° West 273 314 7,400 -1,400 Descending FlightAware ADS-B
Tue 02:01:27 PM 45.6780 -73.3230 258° West 271 312 6,700 -1,418 Descending FlightAware ADS-B
Tue 02:01:52 PM 45.6720 -73.3650 258° West 266 306 6,100 -1,527 Descending FlightAware ADS-B
Tue 02:02:22 PM 45.6640 -73.4150 257° West 262 302 5,300 -1,855 Descending FlightAware ADS-B
Tue 02:02:47 PM 45.6570 -73.4590 257° West 258 297 4,400 -1,950 Descending FlightAware ADS-B
Tue 02:03:02 PM 45.6530 -73.4820 256° West 251 289 4,000 -800 Descending FlightAware ADS-B
Tue 02:03:32 PM 45.6430 -73.5280 253° West 231 266 3,800 -545 Descending FlightAware ADS-B
Tue 02:03:57 PM 45.6260 -73.5560 229° Southwest 217 250 3,500 -873 Descending FlightAware ADS-B
Tue 02:04:27 PM 45.6050 -73.5850 224° Southwest 205 236 3,000 -1,000 Descending FlightAware ADS-B
Tue 02:04:57 PM 45.5850 -73.6110 222° Southwest 173 199 2,500 -982 Descending FlightAware ADS-B
Tue 02:05:22 PM 45.5710 -73.6290 222° Southwest 163 188 2,100 -873 Descending FlightAware ADS-B
Tue 02:05:52 PM 45.5550 -73.6510 224° Southwest 157 181 1,700 -873 Descending FlightAware ADS-B
Tue 02:06:17 PM 45.5410 -73.6700 224° Southwest 151 174 1,300 -764 Descending FlightAware ADS-B
Tue 02:06:47 PM 45.5270 -73.6880 222° Southwest 137 158 1,000 -655 Descending FlightAware ADS-B
Tue 02:07:12 PM 45.5170 -73.7020 224° Southwest 128 147 700 -720 Descending FlightAware ADS-B

Login

Don't have an account? Register now (free) for customized features, flight alerts, and more!